Data for 09/04/2014

Time Sea-Level Adjusted Pressure Absolute Pressure Temperature Relative Humidity Dew Point   
(mb) (inHg) (mb) (inHg) (C) (F) (%) (C) (F)
00:05 1021 30.15 850 25.1 7.9 46.2 57 -0 32
00:10 1021 30.15 850 25.1 7.9 46.2 58 0.1 32.2
00:15 1021 30.15 850 25.1 7.8 46.1 57 -0.1 31.8
00:20 1021 30.15 850 25.1 7.7 45.9 57 -0.2 31.7
00:25 1021 30.15 850 25.1 7.4 45.4 59 0 32.1
00:30 1021 30.15 850 25.1 7 44.7 62 0.2 32.3
00:35 1021 30.15 850 25.1 6.7 44.1 62 -0 31.9
00:40 1021 30.15 850 25.1 6.9 44.4 59 -0.5 31.1
00:45 1021 30.15 850 25.1 7.1 44.8 59 -0.3 31.5
00:50 1021 30.15 850 25.1 7.1 44.8 62 0.2 32.4
00:55 1021 30.15 850 25.1 6.6 43.8 66 0.8 33.4
01:00 1021 30.15 850 25.1 6 42.9 63 -0.4 31.3
01:05 1021 30.15 850 25.1 6.7 44.1 60 -0.6 31
01:10 1021 30.15 850 25.1 7.2 45 59 -0.2 31.7
01:15 1021 30.15 850 25.1 7.2 45 60 -0.1 31.9
01:20 1021 30.15 850 25.1 7.1 44.8 60 -0 31.9
01:25 1021 30.15 850 25.1 7 44.7 59 -0.4 31.3
01:30 1021 30.15 850 25.1 7 44.7 59 -0.3 31.4
01:35 1021 30.15 850 25.1 6.9 44.4 61 -0.1 31.9
01:40 1021 30.15 850 25.1 6.8 44.2 60 -0.3 31.4
01:45 1021 30.15 850 25.1 6.8 44.2 61 -0.2 31.6
01:50 1021 30.15 850 25.1 6.7 44.1 61 -0.2 31.6
01:55 1021 30.15 850 25.1 6.8 44.2 61 -0.2 31.6
02:00 1021 30.15 850 25.1 6.7 44.1 61 -0.2 31.6
02:05 1021 30.15 850 25.1 6.7 44.1 61 -0.3 31.5
02:10 1021 30.15 850 25.1 6.7 44.1 62 -0.1 31.8
02:15 1021 30.15 850 25.1 6.4 43.5 64 0.1 32.2
02:20 1021 30.15 850 25.1 6 42.7 65 -0 32
02:25 1021 30.15 850 25.1 5.9 42.6 64 -0.3 31.5
02:30 1021 30.15 850 25.1 6 42.9 63 -0.4 31.2
02:35 1021 30.15 850 25.1 6.2 43.2 63 -0.2 31.6
02:40 1021 30.15 850 25.1 6.2 43.2 63 -0.2 31.6
02:45 1021 30.15 850 25.1 5.9 42.6 65 -0.1 31.8
02:50 1021 30.15 850 25.1 5.7 42.3 66 -0.2 31.6
02:55 1021 30.15 850 25.1 5.7 42.2 66 -0.2 31.6
03:00 1021 30.15 851 25.13 5.6 42.1 67 -0 32
03:05 1021 30.15 851 25.13 5.2 41.4 71 0.3 32.6
03:10 1021 30.15 851 25.13 4.9 40.7 70 -0.2 31.6
03:15 1021 30.15 851 25.13 5 41 70 -0.1 31.8
03:20 1021 30.15 851 25.13 4.9 40.9 70 -0.2 31.7
03:25 1021 30.15 851 25.13 4.9 40.9 70 -0.1 31.8
03:30 1021 30.15 851 25.13 5 40.9 70 -0 31.9
03:35 1021 30.15 851 25.13 4.9 40.9 72 0.3 32.5
03:40 1021 30.15 851 25.13 4.8 40.7 70 -0.1 31.8
03:45 1021 30.15 851 25.13 5.2 41.4 70 0.2 32.3
03:50 1022 30.18 851 25.13 5.1 41.1 71 0.3 32.6
03:55 1022 30.18 851 25.13 4.8 40.7 73 0.3 32.6
04:00 1022 30.18 851 25.13 4.9 40.7 72 0.3 32.6
04:05 1022 30.18 851 25.13 5 41.1 70 0.1 32.1
04:10 1022 30.18 851 25.13 5.4 41.7 70 0.3 32.6
04:15 1022 30.18 851 25.13 5.4 41.8 70 0.5 32.8
04:20 1022 30.18 851 25.13 5.4 41.7 71 0.5 32.9
04:25 1022 30.18 851 25.13 5.4 41.7 71 0.5 33
04:30 1022 30.18 851 25.13 5.6 42.2 69 0.5 32.9
04:35 1022 30.18 851 25.13 5.9 42.6 68 0.5 32.8
04:40 1022 30.18 851 25.13 6.1 43 66 0.3 32.6
04:45 1022 30.18 851 25.13 6.3 43.3 66 0.5 32.8
04:50 1022 30.18 851 25.13 6.2 43.2 68 0.8 33.5
04:55 1022 30.18 851 25.13 6.1 43 68 0.7 33.3
05:00 1022 30.18 851 25.13 6.4 43.4 67 0.8 33.4
05:05 1022 30.18 851 25.13 6.4 43.5 68 1 33.8
05:10 1022 30.18 851 25.13 6.3 43.4 69 1.2 34.1
05:15 1022 30.18 851 25.13 6.2 43.2 70 1.1 34
05:20 1022 30.18 851 25.13 6.2 43.2 70 1.1 34
05:25 1022 30.18 851 25.13 6.3 43.3 70 1.2 34.1
05:30 1022 30.18 851 25.13 6.3 43.4 69 1.1 34.1
05:35 1022 30.18 852 25.16 6.3 43.4 70 1.2 34.1
05:40 1022 30.18 852 25.16 6.3 43.3 69 1.1 34
05:45 1022 30.18 852 25.16 6.4 43.5 69 1.1 34
05:50 1022 30.18 852 25.16 6.4 43.6 69 1.2 34.2
05:55 1023 30.21 852 25.16 6.5 43.6 69 1.2 34.2
06:00 1023 30.21 852 25.16 6.4 43.6 69 1.1 34
06:05 1023 30.21 852 25.16 6.5 43.6 69 1.2 34.2
06:10 1023 30.21 852 25.16 6.6 44 68 1.3 34.3
06:15 1023 30.21 852 25.16 6.7 44.1 68 1.3 34.3
06:20 1023 30.21 852 25.16 6.7 44.1 68 1.3 34.4
06:25 1023 30.21 852 25.16 6.7 44.1 69 1.5 34.7
06:30 1023 30.21 852 25.16 6.7 44.1 70 1.6 34.9
06:35 1023 30.21 852 25.16 6.8 44.2 69 1.6 34.9
06:40 1023 30.21 852 25.16 6.9 44.5 69 1.7 35
06:45 1023 30.21 852 25.16 6.9 44.5 69 1.7 35
06:50 1023 30.21 852 25.16 7 44.7 69 1.7 35
06:55 1023 30.21 852 25.16 7.3 45.1 67 1.7 35
07:00 1023 30.21 852 25.16 7.7 45.8 67 1.9 35.5
07:05 1023 30.21 852 25.16 7.6 45.7 67 1.9 35.5
07:10 1023 30.21 852 25.16 8.1 46.6 64 1.7 35.1
07:15 1023 30.21 852 25.16 9.1 48.4 59 1.7 35
07:20 1023 30.21 852 25.16 9.4 48.8 64 2.9 37.1
07:25 1023 30.21 852 25.16 9.1 48.5 61 2.1 35.8
07:30 1023 30.21 852 25.16 9.5 49.1 61 2.4 36.4
07:35 1023 30.21 852 25.16 9.5 49.2 60 2.3 36.1
07:40 1023 30.21 852 25.16 9.6 49.2 57 1.6 34.9
07:45 1023 30.21 852 25.16 10.2 50.3 56 1.9 35.5
07:50 1023 30.21 852 25.16 10.3 50.5 56 1.9 35.3
07:55 1023 30.21 852 25.16 10.3 50.6 54 1.6 34.9
08:00 1023 30.21 853 25.19 10.7 51.3 52 1.2 34.2
08:05 1023 30.21 853 25.19 10.9 51.6 51 1.2 34.1
08:10 1023 30.21 853 25.19 11 51.8 52 1.7 35
08:15 1023 30.21 853 25.19 10.2 50.3 54 1.3 34.3
08:20 1023 30.21 853 25.19 10.3 50.5 51 0.7 33.3
08:25 1024 30.24 853 25.19 10.1 50.2 54 1.3 34.3
08:30 1024 30.24 853 25.19 10.8 51.5 49 0.7 33.3
08:35 1024 30.24 853 25.19 11.2 52.1 52 1.7 35
08:40 1024 30.24 853 25.19 10.5 50.9 48 0 32.1
08:45 1024 30.24 853 25.19 11.5 52.7 49 1.1 34
08:50 1024 30.24 853 25.19 11.8 53.3 47 0.8 33.5
08:55 1024 30.24 853 25.19 12.3 54.2 44 0.6 33.1
09:00 1024 30.24 853 25.19 11.8 53.2 46 0.7 33.3
09:05 1024 30.24 853 25.19 11.3 52.3 50 1.3 34.4
09:10 1024 30.24 853 25.19 11.3 52.4 48 0.8 33.4
09:15 1024 30.24 853 25.19 12 53.6 44 0.2 32.4
09:20 1024 30.24 853 25.19 11.6 52.8 47 0.6 33.1
09:25 1024 30.24 853 25.19 11.2 52.2 45 -0.1 31.8
09:30 1024 30.24 853 25.19 11.9 53.4 45 0.5 32.9
09:35 1024 30.24 853 25.19 11.7 53.1 47 0.9 33.6
09:40 1024 30.24 853 25.19 11.5 52.7 46 0.2 32.4
09:45 1024 30.24 853 25.19 12.1 53.8 41 -0.7 30.8
09:50 1024 30.24 853 25.19 12.3 54.1 42 -0.1 31.8
09:55 1024 30.24 853 25.19 13.1 55.6 39 -0.4 31.3
10:00 1024 30.24 853 25.19 13.4 56.2 39 -0 32
10:05 1024 30.24 853 25.19 13.5 56.3 38 -0.4 31.2
10:10 1024 30.24 853 25.19 13.7 56.6 38 -0.1 31.7
10:15 1024 30.24 853 25.19 13.1 55.6 40 -0.2 31.6
10:20 1024 30.24 853 25.19 13 55.3 41 0.1 32.2
10:25 1024 30.24 853 25.19 12.8 55 40 -0.4 31.3
10:30 1024 30.24 853 25.19 12.6 54.7 41 -0.3 31.4
10:35 1024 30.24 853 25.19 12.7 54.8 36 -1.9 28.6
10:40 1024 30.24 853 25.19 13.2 55.8 34 -2.3 27.8
10:45 1024 30.24 853 25.19 13.8 56.8 33 -2.1 28.3
10:50 1024 30.24 853 25.19 13.4 56.2 35 -1.5 29.3
10:55 1024 30.24 853 25.19 13.9 57 33 -2.2 28.1
11:00 1024 30.24 853 25.19 13.8 56.9 35 -1.4 29.5
11:05 1023 30.21 853 25.19 14.3 57.7 34 -1.4 29.5
11:10 1023 30.21 853 25.19 13.9 57 35 -1.1 30.1
11:15 1023 30.21 853 25.19 13.2 55.7 35 -2 28.5
11:20 1023 30.21 853 25.19 14.3 57.7 33 -1.6 29.1
11:25 1023 30.21 853 25.19 14.8 58.6 34 -1 30.2
11:30 1023 30.21 853 25.19 14.4 58 33 -1.7 28.9
11:35 1023 30.21 852 25.16 15 59.1 30 -2.2 28
11:40 1023 30.21 852 25.16 14.8 58.6 34 -0.8 30.6
11:45 1023 30.21 852 25.16 14 57.1 34 -1.7 28.9
11:50 1023 30.21 852 25.16 14.4 57.9 34 -1.3 29.7
11:55 1023 30.21 852 25.16 14.8 58.6 31 -2.2 28.1
12:00 1023 30.21 852 25.16 15.4 59.6 30 -2 28.4
12:05 1023 30.21 852 25.16 15.7 60.3 31 -1.5 29.4
12:10 1023 30.21 852 25.16 15.4 59.7 31 -1.7 28.9
12:15 1023 30.21 852 25.16 14.9 58.7 30 -2.3 27.8
12:20 1023 30.21 852 25.16 15.3 59.6 32 -1.3 29.6
12:25 1023 30.21 852 25.16 15.8 60.4 31 -1.2 29.9
12:30 1023 30.21 852 25.16 15.8 60.4 31 -1.3 29.6
12:35 1023 30.21 852 25.16 15.4 59.8 30 -2 28.4
12:40 1023 30.21 852 25.16 16.1 61 29 -1.7 29
12:45 1023 30.21 852 25.16 16.2 61.1 29 -1.7 28.9
12:50 1023 30.21 852 25.16 16.3 61.4 28 -2.2 28.1
12:55 1023 30.21 852 25.16 16.1 61 28 -2.3 27.9
13:00 1023 30.21 852 25.16 15.4 59.7 30 -2.1 28.3
13:05 1023 30.21 852 25.16 15.3 59.5 30 -2 28.3
13:10 1023 30.21 852 25.16 16.4 61.5 27 -2.6 27.4
13:15 1023 30.21 852 25.16 15.7 60.3 29 -2.4 27.8
13:20 1023 30.21 852 25.16 15.9 60.6 29 -2.2 28
13:25 1023 30.21 852 25.16 15.9 60.5 30 -1.5 29.3
13:30 1023 30.21 852 25.16 16.2 61.1 28 -2.4 27.7
13:35 1023 30.21 852 25.16 16.8 62.3 26 -2.5 27.5
13:40 1023 30.21 852 25.16 16.6 61.9 27 -2.2 28
13:45 1023 30.21 852 25.16 16.8 62.2 28 -1.7 28.9
13:50 1023 30.21 852 25.16 15.8 60.4 30 -1.8 28.7
13:55 1023 30.21 852 25.16 15.6 60 28 -2.7 27.2
14:00 1023 30.21 852 25.16 15.9 60.7 28 -2.2 28
14:05 1023 30.21 852 25.16 14.9 58.7 30 -2.5 27.5
14:10 1023 30.21 852 25.16 15.9 60.5 28 -2.5 27.4
14:15 1023 30.21 852 25.16 17 62.6 26 -2.3 27.9
14:20 1023 30.21 852 25.16 17.2 63 25 -2.8 27
14:25 1023 30.21 852 25.16 16.8 62.2 26 -2.8 27
14:30 1023 30.21 852 25.16 16.6 61.9 27 -2.3 27.9
14:35 1023 30.21 852 25.16 16.5 61.8 26 -2.7 27.1
14:40 1023 30.21 852 25.16 16.7 62.1 26 -2.7 27.1
14:45 1023 30.21 852 25.16 17 62.7 26 -2.3 27.8
14:50 1023 30.21 852 25.16 16.6 62 27 -2.2 28
14:55 1023 30.21 852 25.16 16.9 62.4 27 -1.9 28.6
15:00 1023 30.21 852 25.16 17 62.6 27 -2.1 28.2
15:05 1023 30.21 852 25.16 17 62.5 28 -1.8 28.8
15:10 1023 30.21 852 25.16 17.3 63.1 26 -2.2 28.1
15:15 1023 30.21 852 25.16 17 62.5 25 -3 26.5
15:20 1023 30.21 852 25.16 16.6 61.8 27 -2.5 27.5
15:25 1023 30.21 852 25.16 17 62.6 25 -3.3 26.1
15:30 1023 30.21 852 25.16 16.8 62.3 26 -2.5 27.6
15:35 1023 30.21 852 25.16 17 62.6 26 -2.5 27.6
15:40 1023 30.21 852 25.16 16.8 62.2 28 -1.9 28.6
15:45 1023 30.21 852 25.16 16.9 62.4 28 -1.7 28.9
15:50 1023 30.21 852 25.16 16.4 61.5 27 -2.5 27.5
15:55 1023 30.21 852 25.16 17.4 63.4 24 -3 26.6
16:00 1023 30.21 852 25.16 17.1 62.8 26 -2.3 27.9
16:05 1023 30.21 852 25.16 17.1 62.7 26 -2.2 28
16:10 1023 30.21 852 25.16 17.3 63.1 25 -2.7 27.1
16:15 1023 30.21 852 25.16 17.4 63.3 26 -2.4 27.7
16:20 1023 30.21 852 25.16 17 62.6 25 -2.8 26.9
16:25 1023 30.21 852 25.16 16.3 61.3 28 -2.1 28.3
16:30 1023 30.21 852 25.16 15.6 60.1 28 -2.7 27.2
16:35 1023 30.21 852 25.16 16.4 61.6 26 -2.8 27
16:40 1023 30.21 852 25.16 17 62.6 25 -2.9 26.8
16:45 1023 30.21 852 25.16 17 62.7 25 -3.2 26.3
16:50 1023 30.21 852 25.16 17.1 62.7 24 -3.3 26.1
16:55 1023 30.21 852 25.16 17.2 62.9 24 -3.5 25.8
17:00 1023 30.21 852 25.16 17.1 62.7 24 -3.5 25.8
17:05 1023 30.21 852 25.16 16.6 61.9 25 -3.1 26.4
17:10 1023 30.21 852 25.16 16.9 62.5 26 -2.7 27.1
17:15 1023 30.21 852 25.16 16.9 62.4 27 -2.3 27.8
17:20 1023 30.21 852 25.16 16.5 61.8 26 -2.8 26.9
17:25 1023 30.21 852 25.16 16 60.7 27 -2.8 26.9
17:30 1023 30.21 852 25.16 15.4 59.8 28 -3.1 26.4
17:35 1023 30.21 852 25.16 15.4 59.6 28 -2.8 26.9
17:40 1023 30.21 852 25.16 15.4 59.7 27 -3.4 25.9
17:45 1023 30.21 852 25.16 15.1 59.2 28 -3 26.7
17:50 1023 30.21 852 25.16 15 59.1 30 -2.2 28
17:55 1023 30.21 852 25.16 14.7 58.4 31 -2 28.4
18:00 1023 30.21 852 25.16 14.5 58.2 32 -2 28.5
18:05 1023 30.21 852 25.16 14.8 58.6 31 -1.9 28.6
18:10 1023 30.21 852 25.16 15 59 30 -2.3 27.9
18:15 1023 30.21 852 25.16 14.8 58.6 31 -2 28.4
18:20 1023 30.21 852 25.16 14.6 58.3 32 -1.9 28.5
18:25 1023 30.21 852 25.16 14.4 57.8 33 -1.7 28.9
18:30 1023 30.21 852 25.16 14.2 57.6 31 -2.6 27.2
18:35 1023 30.21 852 25.16 14.2 57.6 34 -1.2 29.9
18:40 1023 30.21 852 25.16 14.2 57.5 34 -1.2 29.8
18:45 1023 30.21 852 25.16 14.1 57.3 33 -2 28.3
18:50 1023 30.21 852 25.16 14 57.2 34 -1.4 29.4
18:55 1023 30.21 852 25.16 13.9 57 34 -1.7 29
19:00 1023 30.21 852 25.16 13.8 56.9 34 -1.8 28.7
19:05 1023 30.21 852 25.16 13.7 56.7 33 -2 28.3
19:10 1023 30.21 852 25.16 13.5 56.2 41 0.6 33.1
19:15 1023 30.21 852 25.16 12.3 54.2 49 1.9 35.5
19:20 1023 30.21 852 25.16 11.6 52.9 51 1.7 35.1
19:25 1023 30.21 852 25.16 11.2 52.2 52 1.8 35.3
19:30 1023 30.21 852 25.16 10.9 51.5 53 1.7 35.1
19:35 1023 30.21 852 25.16 10.6 51.2 54 1.8 35.2
19:40 1023 30.21 852 25.16 10.3 50.5 56 1.9 35.4
19:45 1023 30.21 852 25.16 9.9 49.8 58 2 35.5
19:50 1023 30.21 852 25.16 9.4 48.9 62 2.5 36.5
19:55 1023 30.21 852 25.16 9 48.1 61 1.8 35.3
20:00 1023 30.21 853 25.19 8.9 48 57 1 33.7
20:05 1023 30.21 853 25.19 9.1 48.4 55 0.7 33.2
20:10 1023 30.21 853 25.19 9.3 48.7 55 0.8 33.4
20:15 1023 30.21 853 25.19 9.1 48.4 56 0.9 33.6
20:20 1024 30.24 853 25.19 9 48.3 56 0.8 33.5
20:25 1024 30.24 853 25.19 9 48.2 56 0.8 33.5
20:30 1024 30.24 853 25.19 8.9 48 57 0.8 33.4
20:35 1024 30.24 853 25.19 8.8 47.8 57 0.8 33.5
20:40 1024 30.24 853 25.19 8.6 47.5 58 0.9 33.5
20:45 1024 30.24 853 25.19 8.4 47.1 57 0.4 32.8
20:50 1024 30.24 853 25.19 8.4 47.2 56 0.2 32.4
20:55 1024 30.24 853 25.19 8.6 47.4 56 0.4 32.8
21:00 1024 30.24 853 25.19 8.5 47.3 55 0.1 32.2
21:05 1024 30.24 853 25.19 8.6 47.5 56 0.4 32.7
21:10 1023 30.21 853 25.19 8.2 46.7 59 0.6 33.1
21:15 1023 30.21 853 25.19 7.7 45.9 59 0.2 32.4
21:20 1024 30.24 853 25.19 7.9 46.2 58 0.1 32.2
21:25 1024 30.24 853 25.19 7.8 46 58 0.1 32.3
21:30 1024 30.24 853 25.19 7.7 45.8 56 -0.5 31.1
21:35 1024 30.24 853 25.19 8.2 46.8 54 -0.6 31
21:40 1024 30.24 853 25.19 8.3 47 54 -0.3 31.4
21:45 1024 30.24 853 25.19 8.2 46.8 55 -0.3 31.4
21:50 1024 30.24 853 25.19 8 46.4 56 -0.3 31.4
21:55 1024 30.24 853 25.19 7.9 46.2 57 -0.1 31.8
22:00 1024 30.24 853 25.19 7.5 45.5 59 -0.1 31.8
22:05 1024 30.24 853 25.19 7.2 45 60 -0.1 31.8
22:10 1024 30.24 853 25.19 7 44.7 61 -0 32
22:15 1024 30.24 853 25.19 6.9 44.4 60 -0.4 31.3
22:20 1024 30.24 853 25.19 7.2 44.9 58 -0.6 31
22:25 1024 30.24 853 25.19 7.3 45.1 59 -0.2 31.6
22:30 1024 30.24 853 25.19 7.1 44.8 60 -0.2 31.7
22:35 1024 30.24 853 25.19 7 44.5 60 -0.3 31.4
22:40 1024 30.24 853 25.19 6.9 44.5 60 -0.3 31.5
22:45 1024 30.24 853 25.19 7 44.6 60 -0.2 31.7
22:50 1024 30.24 853 25.19 6.9 44.4 60 -0.2 31.6
22:55 1024 30.24 853 25.19 6.8 44.3 61 -0.1 31.8
23:00 1024 30.24 853 25.19 6.8 44.2 61 -0.2 31.6
23:05 1024 30.24 853 25.19 6.8 44.3 60 -0.3 31.5
23:10 1024 30.24 853 25.19 6.9 44.4 61 -0.1 31.8
23:15 1024 30.24 853 25.19 6.9 44.4 61 -0.2 31.7
23:20 1024 30.24 853 25.19 7.1 44.8 60 -0 32
23:25 1024 30.24 853 25.19 7 44.6 60 -0.2 31.7
23:30 1024 30.24 853 25.19 7.1 44.8 60 -0.1 31.9
23:35 1024 30.24 853 25.19 7 44.6 62 0.2 32.3
23:40 1024 30.24 853 25.19 6.7 44.1 63 0.2 32.3
23:45 1024 30.24 853 25.19 6.5 43.8 63 -0 32
23:50 1024 30.24 853 25.19 6.6 43.9 62 -0.1 31.9
23:55 1024 30.24 853 25.19 7.1 44.8 61 0.1 32.2
24:00 1024 30.24 853 25.19 7 44.7 61 0.1 32.2